Doylestown, Ohio
Current Conditions -  °F | °C
As of 8:56 PM on Sunday 25 Jan 2015 (Local Time) from KBJJ Reporting Station
Light Snow Light Snow  
Wind Chill:   Ceiling: 1100
Heat Index: 22°   Visibility: 1.2mi
Dew Point: 20°   Wind: 14mph
Humidity: 92%   Direction: 40°NE
Pressure: 29.82"   Gusts: NA
Location:  40.97°N, 81.7°W
Report Text: KBJJ 260156Z AUTO 04012KT 1 1/4SM -SN BR OVC011 M06/M07 A2982 RMK AO2 SLP113 P0000 T10561067 TSNO
Loading
Personal Weather Stations






























Interactive Weather Map New forecast layout! Learn more

10-Day Weather Forecast

Advertisements
Track Severe Weather on mobile